Time;durP1;ratioP1;P1;durP2;ratioP2;P2;SDS_P1;SDS_P2;PMS_P1;PMS_P2;Temp;Humidity;BMP_temperature;BMP_pressure;BME280_temperature;BME280_humidity;BME280_pressure;Samples;Min_cycle;Max_cycle;Signal;HPM_P1;HPM_P2
2021/07/17 00:00:02;;;;;;;0.00;0.00;;;21.90;85.40;;;;;;4193375;28;20063;-50
2021/07/17 00:02:33;;;;;;;0.00;0.00;;;21.80;85.40;;;;;;4193159;28;20507;-51
2021/07/17 00:04:55;;;;;;;1.38;0.38;;;21.80;85.40;;;;;;4193278;28;20516;-51
2021/07/17 00:07:18;;;;;;;0.00;0.00;;;21.80;85.40;;;;;;4193523;28;20048;-48
2021/07/17 00:09:40;;;;;;;0.75;0.22;;;21.80;85.40;;;;;;4193200;28;20048;-49
2021/07/17 00:12:04;;;;;;;0.08;0.08;;;21.80;85.40;;;;;;4193126;28;20044;-47
2021/07/17 00:14:27;;;;;;;2.20;1.20;;;21.80;85.40;;;;;;4193597;28;20076;-46
2021/07/17 00:16:49;;;;;;;0.13;0.13;;;21.80;86.30;;;;;;4208540;28;20121;-52
2021/07/17 00:19:11;;;;;;;0.00;0.00;;;21.80;85.40;;;;;;4209989;28;20065;-48
2021/07/17 00:21:33;;;;;;;1.13;0.52;;;21.80;85.40;;;;;;4209299;28;20047;-49
2021/07/17 00:23:55;;;;;;;0.10;0.10;;;21.80;85.50;;;;;;4209865;28;20142;-49
2021/07/17 00:26:17;;;;;;;0.00;0.00;;;21.70;85.40;;;;;;4209548;28;20048;-48
2021/07/17 00:28:41;;;;;;;0.00;0.00;;;21.70;85.40;;;;;;4209456;28;20055;-48
2021/07/17 00:31:03;;;;;;;0.20;0.20;;;21.70;85.40;;;;;;4192671;28;20052;-46
2021/07/17 00:33:25;;;;;;;0.00;0.00;;;21.70;85.40;;;;;;4192602;28;20048;-48
2021/07/17 00:35:47;;;;;;;2.40;1.25;;;21.70;85.40;;;;;;4193041;28;20071;-50
2021/07/17 00:38:09;;;;;;;0.05;0.05;;;21.70;85.40;;;;;;4191730;28;20052;-47
2021/07/17 00:40:33;;;;;;;0.00;0.00;;;21.70;85.50;;;;;;4192826;28;20457;-48
2021/07/17 00:42:55;;;;;;;0.03;0.03;;;21.70;85.40;;;;;;4193315;28;20060;-47
2021/07/17 00:45:20;;;;;;;0.35;0.35;;;21.70;85.50;;;;;;4192830;28;20098;-50
2021/07/17 00:47:42;;;;;;;0.08;0.08;;;21.70;85.50;;;;;;4192996;28;20044;-47
2021/07/17 00:50:05;;;;;;;0.32;0.32;;;21.70;85.50;;;;;;4192178;28;20143;-53
2021/07/17 00:52:27;;;;;;;0.20;0.20;;;21.70;85.50;;;;;;4192769;28;20056;-49
2021/07/17 00:54:50;;;;;;;0.03;0.03;;;21.60;85.40;;;;;;4192370;28;20560;-47
2021/07/17 00:57:13;;;;;;;0.28;0.28;;;21.60;85.50;;;;;;4192407;28;20079;-47
2021/07/17 00:59:36;;;;;;;0.00;0.00;;;21.60;85.50;;;;;;4192815;28;20052;-46
2021/07/17 01:02:01;;;;;;;0.10;0.10;;;21.60;85.60;;;;;;4175980;28;20040;-48
2021/07/17 01:04:25;;;;;;;0.00;0.00;;;21.60;85.60;;;;;;4176121;28;20045;-47
2021/07/17 01:06:47;;;;;;;0.00;0.00;;;21.60;85.60;;;;;;4176097;28;20411;-49
2021/07/17 01:09:09;;;;;;;0.00;0.00;;;21.60;85.60;;;;;;4175797;28;20146;-48
2021/07/17 01:11:32;;;;;;;0.08;0.08;;;21.60;85.60;;;;;;4179213;28;20044;-49
2021/07/17 01:13:53;;;;;;;0.10;0.10;;;21.60;85.70;;;;;;4192252;28;20044;-50
2021/07/17 01:16:15;;;;;;;0.22;0.22;;;21.60;85.70;;;;;;4192408;28;20064;-49
2021/07/17 01:18:39;;;;;;;0.00;0.00;;;21.60;85.70;;;;;;4192504;28;20044;-54
2021/07/17 01:21:03;;;;;;;8.50;0.82;;;21.60;85.70;;;;;;4190934;28;20048;-51
2021/07/17 01:23:26;;;;;;;0.38;0.38;;;21.60;86.60;;;;;;4192429;28;20048;-52
2021/07/17 01:25:49;;;;;;;0.00;0.00;;;21.60;85.70;;;;;;4191949;28;20418;-48
2021/07/17 01:28:11;;;;;;;0.00;0.00;;;21.60;85.70;;;;;;4191622;28;20764;-49
2021/07/17 01:30:35;;;;;;;0.15;0.15;;;21.60;85.70;;;;;;4192055;28;20576;-47
2021/07/17 01:32:58;;;;;;;0.20;0.20;;;21.60;85.70;;;;;;4190241;28;20048;-51
2021/07/17 01:35:21;;;;;;;0.03;0.03;;;21.60;85.70;;;;;;4192048;28;20492;-52
2021/07/17 01:37:43;;;;;;;0.10;0.10;;;21.60;85.70;;;;;;4191931;28;20044;-52
2021/07/17 01:40:11;;;;;;;0.00;0.00;;;21.60;85.80;;;;;;4191696;28;20053;-47
2021/07/17 01:42:35;;;;;;;0.43;0.43;;;21.50;85.70;;;;;;4192194;28;20090;-49
2021/07/17 01:44:57;;;;;;;0.00;0.00;;;21.60;85.80;;;;;;4191955;28;20062;-50
2021/07/17 01:47:19;;;;;;;0.10;0.10;;;21.60;85.80;;;;;;4191650;28;20058;-48
2021/07/17 01:49:42;;;;;;;0.20;0.20;;;21.50;85.80;;;;;;4206681;27;20143;-46
2021/07/17 01:52:05;;;;;;;0.00;0.00;;;21.60;85.90;;;;;;4208331;28;20052;-47
2021/07/17 01:54:31;;;;;;;0.30;0.22;;;21.50;85.80;;;;;;4208277;28;20079;-48
2021/07/17 01:56:54;;;;;;;0.00;0.00;;;21.50;85.90;;;;;;4208679;28;20036;-51
2021/07/17 01:59:17;;;;;;;0.00;0.00;;;21.50;85.90;;;;;;4208431;28;20062;-47
2021/07/17 02:01:39;;;;;;;0.00;0.00;;;21.50;85.90;;;;;;4208651;28;20134;-50
2021/07/17 02:04:01;;;;;;;0.17;0.17;;;21.50;85.90;;;;;;4206989;28;20036;-50
2021/07/17 02:06:25;;;;;;;0.00;0.00;;;21.50;85.90;;;;;;4190147;28;20736;-51
2021/07/17 02:08:47;;;;;;;0.00;0.00;;;21.50;86.00;;;;;;4207991;28;20687;-50
2021/07/17 02:11:10;;;;;;;0.00;0.00;;;21.50;86.00;;;;;;4207859;28;20110;-53
2021/07/17 02:13:33;;;;;;;0.15;0.15;;;21.50;86.00;;;;;;4207927;28;20474;-49
2021/07/17 02:15:56;;;;;;;0.00;0.00;;;21.50;86.00;;;;;;4208209;28;20043;-49
2021/07/17 02:18:24;;;;;;;0.10;0.10;;;21.50;86.00;;;;;;4206764;28;20054;-51
2021/07/17 02:20:45;;;;;;;0.00;0.00;;;21.50;86.00;;;;;;4206629;28;20054;-46
2021/07/17 02:23:08;;;;;;;1.55;0.22;;;21.50;86.00;;;;;;4191550;28;20044;-49
2021/07/17 02:25:30;;;;;;;0.00;0.00;;;21.50;86.10;;;;;;4190539;28;20048;-52
2021/07/17 02:27:52;;;;;;;0.10;0.10;;;21.40;86.00;;;;;;4191505;28;20052;-50
2021/07/17 02:30:17;;;;;;;0.00;0.00;;;21.50;86.10;;;;;;4191320;28;20052;-51
2021/07/17 02:32:39;;;;;;;0.00;0.00;;;21.40;86.20;;;;;;4175668;28;20056;-50
2021/07/17 02:35:01;;;;;;;0.00;0.00;;;21.40;86.20;;;;;;4191059;28;20483;-47
2021/07/17 02:37:23;;;;;;;0.08;0.08;;;21.40;86.10;;;;;;4191023;28;20067;-50
2021/07/17 02:39:45;;;;;;;0.35;0.35;;;21.40;86.10;;;;;;4190841;28;20222;-48
2021/07/17 02:42:07;;;;;;;0.00;0.00;;;21.40;86.20;;;;;;4191060;28;20457;-47
2021/07/17 02:44:30;;;;;;;0.00;0.00;;;21.40;86.20;;;;;;4207664;28;20047;-47
2021/07/17 02:46:54;;;;;;;0.22;0.22;;;21.40;86.30;;;;;;4207787;28;20051;-52
2021/07/17 02:49:16;;;;;;;0.15;0.15;;;21.40;86.40;;;;;;4207505;28;20050;-51
2021/07/17 02:51:38;;;;;;;0.00;0.00;;;21.40;86.40;;;;;;4206409;28;20051;-50
2021/07/17 02:54:00;;;;;;;0.90;0.90;;;21.40;86.50;;;;;;4207307;28;20544;-49
2021/07/17 02:56:22;;;;;;;0.30;0.30;;;21.40;86.50;;;;;;4191237;28;20135;-56
2021/07/17 02:58:44;;;;;;;0.52;0.52;;;21.30;86.60;;;;;;4207367;28;20067;-50
2021/07/17 03:01:07;;;;;;;0.00;0.00;;;21.40;86.70;;;;;;4199358;28;20070;-49
2021/07/17 03:03:31;;;;;;;0.10;0.10;;;21.30;86.60;;;;;;4211266;28;20058;-50
2021/07/17 03:05:53;;;;;;;0.00;0.00;;;21.30;86.70;;;;;;4210967;28;20521;-47
2021/07/17 03:08:20;;;;;;;0.00;0.00;;;21.30;86.70;;;;;;4194504;28;20045;-51
2021/07/17 03:10:42;;;;;;;0.00;0.00;;;21.30;86.80;;;;;;4194551;28;20101;-50
2021/07/17 03:13:05;;;;;;;0.10;0.10;;;21.30;86.80;;;;;;4194420;28;20542;-47
2021/07/17 03:15:27;;;;;;;0.10;0.10;;;21.30;86.80;;;;;;4193965;28;20045;-52
2021/07/17 03:17:49;;;;;;;0.10;0.10;;;21.30;86.90;;;;;;4194565;28;20048;-53
2021/07/17 03:20:13;;;;;;;0.00;0.00;;;21.30;86.90;;;;;;4193971;28;20537;-50
2021/07/17 03:22:35;;;;;;;1.17;1.08;;;21.30;87.00;;;;;;4193645;28;20139;-48
2021/07/17 03:24:57;;;;;;;0.00;0.00;;;21.20;86.90;;;;;;4193890;28;20055;-47
2021/07/17 03:27:19;;;;;;;0.30;0.30;;;21.30;87.10;;;;;;4210535;28;20071;-47
2021/07/17 03:29:41;;;;;;;0.32;0.30;;;21.20;87.00;;;;;;4210034;28;20417;-46
2021/07/17 03:32:04;;;;;;;0.00;0.00;;;21.20;87.10;;;;;;4210792;28;20044;-47
2021/07/17 03:34:26;;;;;;;0.00;0.00;;;21.20;87.10;;;;;;4209322;28;20085;-47
2021/07/17 03:36:49;;;;;;;0.00;0.00;;;21.20;87.20;;;;;;4210764;28;20051;-51
2021/07/17 03:39:11;;;;;;;0.10;0.10;;;21.20;87.20;;;;;;4210209;28;20052;-52
2021/07/17 03:41:33;;;;;;;0.00;0.00;;;21.20;87.20;;;;;;4193751;28;20507;-47
2021/07/17 03:43:55;;;;;;;0.00;0.00;;;21.20;87.30;;;;;;4193718;28;20068;-47
2021/07/17 03:46:17;;;;;;;0.00;0.00;;;21.20;87.30;;;;;;4193655;28;20063;-49
2021/07/17 03:48:39;;;;;;;0.00;0.00;;;21.20;87.40;;;;;;4193605;28;20045;-50
2021/07/17 03:51:01;;;;;;;1.10;1.00;;;21.20;87.40;;;;;;4177246;28;20052;-48
2021/07/17 03:53:24;;;;;;;0.00;0.00;;;21.20;87.40;;;;;;4191688;28;20135;-50
2021/07/17 03:55:46;;;;;;;0.05;0.05;;;21.20;87.40;;;;;;4193478;28;20514;-47
2021/07/17 03:58:09;;;;;;;0.00;0.00;;;21.10;87.50;;;;;;4193547;28;20052;-52
2021/07/17 04:00:31;;;;;;;0.00;0.00;;;21.20;87.50;;;;;;4193558;28;20056;-48
2021/07/17 04:02:53;;;;;;;0.25;0.25;;;21.20;87.50;;;;;;4193211;28;20070;-49
2021/07/17 04:05:17;;;;;;;0.00;0.00;;;21.20;87.60;;;;;;4193729;28;20055;-48
2021/07/17 04:07:39;;;;;;;0.00;0.00;;;21.10;87.50;;;;;;4194188;28;20135;-50
2021/07/17 04:10:03;;;;;;;0.00;0.00;;;21.10;87.60;;;;;;4193062;28;20102;-50
2021/07/17 04:12:26;;;;;;;3.10;1.45;;;21.10;87.60;;;;;;4192671;28;20109;-47
2021/07/17 04:14:48;;;;;;;0.00;0.00;;;21.10;87.60;;;;;;4193095;28;20475;-47
2021/07/17 04:17:10;;;;;;;0.03;0.03;;;21.10;87.70;;;;;;4193131;28;20041;-48
2021/07/17 04:19:32;;;;;;;0.00;0.00;;;21.10;87.60;;;;;;4192803;28;20074;-46
2021/07/17 04:21:54;;;;;;;0.00;0.00;;;21.10;87.70;;;;;;4193571;28;20052;-46
2021/07/17 04:24:20;;;;;;;0.32;0.32;;;21.10;87.70;;;;;;4193032;28;20429;-50
2021/07/17 04:26:43;;;;;;;0.10;0.10;;;21.10;87.70;;;;;;4192988;28;20586;-49
2021/07/17 04:29:06;;;;;;;0.00;0.00;;;21.10;87.90;;;;;;4209716;27;20144;-47
2021/07/17 04:31:28;;;;;;;0.10;0.10;;;21.20;88.30;;;;;;4209831;28;20422;-46
2021/07/17 04:33:51;;;;;;;0.35;0.35;;;21.20;88.20;;;;;;4208214;28;20051;-47
2021/07/17 04:36:13;;;;;;;0.00;0.00;;;21.20;88.00;;;;;;4207892;28;20052;-48
2021/07/17 04:38:34;;;;;;;0.00;0.00;;;21.20;88.00;;;;;;4209104;28;20040;-51
2021/07/17 04:40:57;;;;;;;0.00;0.00;;;21.20;88.00;;;;;;4209765;28;20052;-46
2021/07/17 04:43:20;;;;;;;0.10;0.10;;;21.20;87.90;;;;;;4209488;28;20128;-46
2021/07/17 04:45:42;;;;;;;0.00;0.00;;;21.20;87.80;;;;;;4209185;28;20044;-49
2021/07/17 04:48:04;;;;;;;0.00;0.00;;;21.20;87.80;;;;;;4209572;28;20502;-49
2021/07/17 04:50:26;;;;;;;0.00;0.00;;;21.20;87.80;;;;;;4209490;28;20047;-46
2021/07/17 04:52:49;;;;;;;0.65;0.65;;;21.30;87.80;;;;;;4209613;28;20047;-46
2021/07/17 04:55:11;;;;;;;4.65;1.23;;;21.30;87.80;;;;;;4209103;28;20060;-48
2021/07/17 04:57:33;;;;;;;0.75;0.75;;;21.30;87.80;;;;;;4209058;28;20050;-46
2021/07/17 04:59:57;;;;;;;1.73;0.65;;;21.30;87.80;;;;;;4209545;28;20052;-48
2021/07/17 05:02:19;;;;;;;0.00;0.00;;;21.30;87.80;;;;;;4209608;28;20063;-49
2021/07/17 05:04:41;;;;;;;0.00;0.00;;;21.30;87.80;;;;;;4209265;28;20552;-49
2021/07/17 05:07:04;;;;;;;0.00;0.00;;;21.30;87.80;;;;;;4209387;28;20494;-48
2021/07/17 05:09:26;;;;;;;0.00;0.00;;;21.30;87.80;;;;;;4192546;28;20162;-50
2021/07/17 05:11:48;;;;;;;0.25;0.25;;;21.30;87.80;;;;;;4192163;28;20537;-49
2021/07/17 05:14:10;;;;;;;1.38;1.27;;;21.30;87.70;;;;;;4192042;28;20052;-51
2021/07/17 05:16:33;;;;;;;0.03;0.03;;;21.40;87.60;;;;;;4192704;28;20406;-50
2021/07/17 05:18:55;;;;;;;1.95;1.35;;;21.40;87.40;;;;;;4192409;28;20544;-48
2021/07/17 05:21:17;;;;;;;0.65;0.52;;;21.50;87.40;;;;;;4192316;28;20481;-49
2021/07/17 05:23:41;;;;;;;0.00;0.00;;;21.50;87.40;;;;;;4191758;28;20045;-49
2021/07/17 05:26:04;;;;;;;0.05;0.05;;;21.50;87.40;;;;;;4192218;28;20136;-48
2021/07/17 05:28:25;;;;;;;0.00;0.00;;;21.60;87.80;;;;;;4192029;28;20059;-46
2021/07/17 05:30:48;;;;;;;0.00;0.00;;;21.70;87.50;;;;;;4191962;28;20056;-45
2021/07/17 05:33:12;;;;;;;0.00;0.00;;;21.70;87.10;;;;;;4186763;28;20122;-46
2021/07/17 05:35:34;;;;;;;0.38;0.38;;;21.80;86.80;;;;;;4182068;28;20072;-48
2021/07/17 05:37:56;;;;;;;1.13;0.95;;;21.80;86.60;;;;;;4208612;28;20052;-46
2021/07/17 05:40:18;;;;;;;0.00;0.00;;;21.80;86.40;;;;;;4208859;28;20506;-47
2021/07/17 05:42:41;;;;;;;0.00;0.00;;;21.80;86.30;;;;;;4208524;28;20547;-46
2021/07/17 05:45:03;;;;;;;0.00;0.00;;;21.80;86.30;;;;;;4208505;28;20058;-47
2021/07/17 05:47:25;;;;;;;0.00;0.00;;;21.90;86.20;;;;;;4208532;28;20170;-48
2021/07/17 05:49:48;;;;;;;3.47;0.95;;;21.90;86.20;;;;;;4208669;28;20050;-48
2021/07/17 05:52:10;;;;;;;0.00;0.00;;;21.90;86.10;;;;;;4208342;28;20452;-52
2021/07/17 05:54:33;;;;;;;0.10;0.10;;;21.90;86.00;;;;;;4208124;28;20417;-50
2021/07/17 05:56:54;;;;;;;0.00;0.00;;;21.90;85.90;;;;;;4206960;28;20043;-46
2021/07/17 05:59:16;;;;;;;0.32;0.32;;;21.90;85.90;;;;;;4208354;28;20577;-47
2021/07/17 06:01:39;;;;;;;0.03;0.03;;;21.90;86.00;;;;;;4208548;28;20125;-48
2021/07/17 06:04:03;;;;;;;0.05;0.05;;;21.80;86.00;;;;;;4207914;28;20098;-46
2021/07/17 06:06:27;;;;;;;0.10;0.10;;;21.80;86.20;;;;;;4200099;28;20140;-45
2021/07/17 06:08:49;;;;;;;1.48;0.77;;;21.90;86.40;;;;;;4207753;28;20456;-47
2021/07/17 06:11:11;;;;;;;2.28;0.80;;;21.80;86.60;;;;;;4208195;28;20448;-48
2021/07/17 06:13:33;;;;;;;0.00;0.00;;;21.90;87.70;;;;;;4207998;28;20055;-46
2021/07/17 06:15:55;;;;;;;0.15;0.15;;;21.90;89.40;;;;;;4208136;28;20506;-47
2021/07/17 06:18:17;;;;;;;0.00;0.00;;;21.90;88.70;;;;;;4206612;28;20052;-45
2021/07/17 06:20:39;;;;;;;0.00;0.00;;;21.90;88.80;;;;;;4208897;28;20055;-49
2021/07/17 06:23:03;;;;;;;0.88;0.75;;;21.80;90.20;;;;;;4202374;28;20053;-49
2021/07/17 06:25:25;;;;;;;0.35;0.35;;;21.80;89.40;;;;;;4199628;28;20048;-47
2021/07/17 06:27:48;;;;;;;0.00;0.00;;;21.90;89.50;;;;;;4191480;28;20053;-46
2021/07/17 06:30:11;;;;;;;34.50;1.75;;;21.90;89.30;;;;;;4190599;28;20747;-46
2021/07/17 06:32:33;;;;;;;0.30;0.30;;;21.90;89.00;;;;;;4202077;28;20052;-45
2021/07/17 06:34:56;;;;;;;0.00;0.00;;;21.90;88.90;;;;;;4194384;28;20044;-46
2021/07/17 06:37:18;;;;;;;16.05;1.55;;;21.90;88.90;;;;;;4190717;27;20556;-47
2021/07/17 06:39:41;;;;;;;0.70;0.47;;;22.00;88.90;;;;;;4190221;27;20436;-46
2021/07/17 06:42:03;;;;;;;0.00;0.00;;;21.90;88.70;;;;;;4207522;28;20063;-50
2021/07/17 06:44:25;;;;;;;0.47;0.38;;;22.00;88.80;;;;;;4207313;28;20047;-48
2021/07/17 06:46:47;;;;;;;0.17;0.17;;;22.00;88.60;;;;;;4207594;28;20127;-49
2021/07/17 06:49:10;;;;;;;0.10;0.10;;;22.00;88.60;;;;;;4207388;28;20551;-45
2021/07/17 06:51:32;;;;;;;0.13;0.13;;;22.00;88.50;;;;;;4207042;27;20055;-45
2021/07/17 06:53:54;;;;;;;0.80;0.80;;;22.10;88.30;;;;;;4189763;28;20090;-46
2021/07/17 06:56:20;;;;;;;0.00;0.00;;;22.10;88.10;;;;;;4203556;28;20534;-46
2021/07/17 06:58:42;;;;;;;0.00;0.00;;;22.20;87.70;;;;;;4205150;28;20040;-45
2021/07/17 07:01:05;;;;;;;0.00;0.00;;;22.20;87.30;;;;;;4190714;28;20049;-47
2021/07/17 07:03:27;;;;;;;0.32;0.32;;;22.30;86.80;;;;;;4196050;28;20174;-46
2021/07/17 07:05:50;;;;;;;0.08;0.08;;;22.40;86.50;;;;;;4205891;28;20152;-48
2021/07/17 07:08:12;;;;;;;0.00;0.00;;;22.40;86.20;;;;;;4186950;28;20056;-49
2021/07/17 07:10:34;;;;;;;1.58;1.48;;;22.50;85.70;;;;;;4207614;28;20048;-47
2021/07/17 07:12:58;;;;;;;0.40;0.40;;;22.60;85.30;;;;;;4206810;28;20048;-46
2021/07/17 07:15:20;;;;;;;1.00;0.65;;;22.70;84.90;;;;;;4206683;28;20070;-50
2021/07/17 07:17:42;;;;;;;0.10;0.10;;;22.70;84.50;;;;;;4207435;28;20048;-46
2021/07/17 07:20:05;;;;;;;2.20;0.73;;;22.80;84.10;;;;;;4207834;28;20044;-47
2021/07/17 07:22:29;;;;;;;0.00;0.00;;;22.80;83.70;;;;;;4207431;28;20055;-46
2021/07/17 07:24:51;;;;;;;0.00;0.00;;;22.90;83.40;;;;;;4193163;28;20052;-48
2021/07/17 07:27:13;;;;;;;0.00;0.00;;;22.90;83.10;;;;;;4208137;28;20048;-47
2021/07/17 07:29:37;;;;;;;0.43;0.43;;;22.90;82.90;;;;;;4207321;28;20048;-46
2021/07/17 07:32:00;;;;;;;2.75;1.65;;;22.90;82.70;;;;;;4207356;28;20107;-49
2021/07/17 07:34:22;;;;;;;1.13;1.13;;;22.90;82.10;;;;;;4206927;28;20828;-50
2021/07/17 07:36:44;;;;;;;0.52;0.45;;;22.90;81.70;;;;;;4207336;28;20040;-47
2021/07/17 07:39:07;;;;;;;0.00;0.00;;;23.00;81.50;;;;;;4207329;28;20784;-50
2021/07/17 07:41:29;;;;;;;0.10;0.10;;;22.90;81.10;;;;;;4206040;28;20490;-48
2021/07/17 07:43:51;;;;;;;0.10;0.10;;;22.90;81.00;;;;;;4206807;28;20051;-46
2021/07/17 07:46:15;;;;;;;3.95;2.10;;;22.90;80.90;;;;;;4207377;28;20076;-45
2021/07/17 07:48:39;;;;;;;0.00;0.00;;;22.90;81.00;;;;;;4209425;28;20414;-48
2021/07/17 07:51:01;;;;;;;0.00;0.00;;;22.90;80.90;;;;;;4210302;28;20051;-48
2021/07/17 07:53:23;;;;;;;0.10;0.10;;;22.90;80.60;;;;;;4209674;28;20055;-46
2021/07/17 07:55:45;;;;;;;0.10;0.10;;;22.90;80.60;;;;;;4210510;28;20416;-47
2021/07/17 07:58:07;;;;;;;0.20;0.20;;;22.90;80.50;;;;;;4210172;28;20486;-49
2021/07/17 08:00:29;;;;;;;0.30;0.30;;;22.90;80.40;;;;;;4210119;28;20120;-47
2021/07/17 08:02:52;;;;;;;0.05;0.05;;;22.90;80.40;;;;;;4193556;28;20044;-45
2021/07/17 08:05:15;;;;;;;0.00;0.00;;;22.90;80.40;;;;;;4193124;28;20049;-46
2021/07/17 08:07:37;;;;;;;3.00;0.55;;;22.90;80.30;;;;;;4202514;28;20072;-47
2021/07/17 08:09:59;;;;;;;0.00;0.00;;;22.90;80.40;;;;;;4204519;28;20067;-48
2021/07/17 08:12:21;;;;;;;0.28;0.28;;;22.90;80.40;;;;;;4208954;28;20047;-46
2021/07/17 08:14:43;;;;;;;0.00;0.00;;;22.90;80.50;;;;;;4201565;28;20509;-52
2021/07/17 08:17:07;;;;;;;0.03;0.03;;;22.90;80.50;;;;;;4209739;28;20048;-51
2021/07/17 08:19:31;;;;;;;0.00;0.00;;;23.00;80.60;;;;;;4197804;28;20508;-70
2021/07/17 08:21:53;;;;;;;0.00;0.00;;;23.00;81.90;;;;;;4209871;28;20052;-46
2021/07/17 08:24:16;;;;;;;0.00;0.00;;;23.20;80.80;;;;;;4209604;27;20820;-51
2021/07/17 08:26:38;;;;;;;0.00;0.00;;;23.30;80.20;;;;;;4209466;27;20051;-50
2021/07/17 08:29:00;;;;;;;0.00;0.00;;;23.20;79.50;;;;;;4198186;28;20131;-50
2021/07/17 08:31:22;;;;;;;2.35;2.17;;;23.20;79.60;;;;;;4209626;28;20070;-50
2021/07/17 08:33:44;;;;;;;0.20;0.20;;;23.20;79.60;;;;;;4209470;28;20778;-48
2021/07/17 08:36:08;;;;;;;0.00;0.00;;;23.10;79.60;;;;;;4208594;27;20063;-51
2021/07/17 08:38:37;;;;;;;0.00;0.00;;;23.10;79.80;;;;;;4209284;28;20062;-47
2021/07/17 08:41:00;;;;;;;0.00;0.00;;;23.10;79.60;;;;;;4209318;27;20044;-48
2021/07/17 08:43:23;;;;;;;0.00;0.00;;;23.10;79.40;;;;;;4209705;28;20048;-49
2021/07/17 08:45:45;;;;;;;0.00;0.00;;;23.10;79.20;;;;;;4209532;28;20529;-47
2021/07/17 08:48:10;;;;;;;0.00;0.00;;;23.10;79.20;;;;;;4208160;28;20522;-51
2021/07/17 08:50:32;;;;;;;0.10;0.10;;;23.10;79.30;;;;;;4207680;28;20159;-49
2021/07/17 08:52:57;;;;;;;0.00;0.00;;;23.10;79.10;;;;;;4192844;28;20098;-51
2021/07/17 08:55:20;;;;;;;0.00;0.00;;;23.10;78.90;;;;;;4193024;28;20083;-47
2021/07/17 08:57:43;;;;;;;0.00;0.00;;;23.10;78.60;;;;;;4199179;28;20109;-54
2021/07/17 09:00:08;;;;;;;0.20;0.20;;;23.10;78.50;;;;;;4208484;28;20468;-49
2021/07/17 09:02:45;;;;;;;0.13;0.13;;;23.20;78.60;;;;;;4209370;28;20414;-52
2021/07/17 09:05:10;;;;;;;0.00;0.00;;;23.20;78.40;;;;;;4209045;28;20102;-53
2021/07/17 09:07:32;;;;;;;0.17;0.17;;;23.20;78.30;;;;;;4209214;28;20124;-52
2021/07/17 09:09:55;;;;;;;0.00;0.00;;;23.20;78.10;;;;;;4192729;28;20052;-47
2021/07/17 09:12:22;;;;;;;0.00;0.00;;;23.20;78.80;;;;;;4192595;28;20528;-50
2021/07/17 09:14:44;;;;;;;0.00;0.00;;;23.20;77.80;;;;;;4192647;28;20178;-50
2021/07/17 09:17:07;;;;;;;0.15;0.15;;;23.20;77.60;;;;;;4192399;28;20051;-47
2021/07/17 09:19:31;;;;;;;0.20;0.20;;;23.20;77.30;;;;;;4192216;28;20582;-49
2021/07/17 09:21:56;;;;;;;0.00;0.00;;;23.20;77.20;;;;;;4192427;28;20044;-49
2021/07/17 09:24:19;;;;;;;0.00;0.00;;;23.30;77.00;;;;;;4192408;28;20461;-47
2021/07/17 09:26:51;;;;;;;0.10;0.10;;;23.20;76.80;;;;;;4208751;28;20557;-48
2021/07/17 09:29:14;;;;;;;0.20;0.20;;;23.30;76.80;;;;;;4191811;28;20063;-50
2021/07/17 09:31:39;;;;;;;0.17;0.17;;;23.30;76.80;;;;;;4209225;28;20482;-47
2021/07/17 09:34:07;;;;;;;0.00;0.00;;;23.40;76.80;;;;;;4209066;28;20043;-50
2021/07/17 09:36:29;;;;;;;0.00;0.00;;;23.40;76.60;;;;;;4191799;28;20052;-47
2021/07/17 09:38:52;;;;;;;0.00;0.00;;;23.40;76.50;;;;;;4192212;28;20495;-47
2021/07/17 09:41:14;;;;;;;0.00;0.00;;;23.40;76.70;;;;;;4192198;28;20075;-49
2021/07/17 09:43:40;;;;;;;0.00;0.00;;;23.40;76.90;;;;;;4192164;28;20507;-51
2021/07/17 09:46:19;;;;;;;0.10;0.10;;;23.40;77.40;;;;;;4204079;28;20040;-53
2021/07/17 09:48:47;;;;;;;0.00;0.00;;;23.40;76.70;;;;;;4208245;28;20058;-48
2021/07/17 09:51:09;;;;;;;0.00;0.00;;;23.50;76.80;;;;;;4208463;28;20046;-50
2021/07/17 09:53:53;;;;;;;0.00;0.00;;;23.50;76.70;;;;;;4208510;28;20126;-49
2021/07/17 09:56:16;;;;;;;0.00;0.00;;;23.50;76.70;;;;;;4208059;28;20040;-46
2021/07/17 09:58:40;;;;;;;0.00;0.00;;;23.50;76.60;;;;;;4208604;28;20138;-49
2021/07/17 10:01:14;;;;;;;0.03;0.03;;;23.50;76.60;;;;;;4208477;28;20494;-46
2021/07/17 10:03:36;;;;;;;0.40;0.40;;;23.60;76.70;;;;;;4208514;28;20378;-46
2021/07/17 10:05:58;;;;;;;0.20;0.20;;;23.60;76.80;;;;;;4208192;28;20048;-48
2021/07/17 10:08:20;;;;;;;0.03;0.03;;;23.60;76.80;;;;;;4208647;28;20040;-47
2021/07/17 10:10:44;;;;;;;0.00;0.00;;;23.60;76.70;;;;;;4208105;28;20459;-47
2021/07/17 10:13:06;;;;;;;0.10;0.10;;;23.60;76.80;;;;;;4208366;28;20548;-47
2021/07/17 10:15:33;;;;;;;0.10;0.10;;;23.60;76.80;;;;;;4208174;28;20051;-47
2021/07/17 10:18:23;;;;;;;0.00;0.00;;;23.70;76.80;;;;;;4208134;28;20048;-47
2021/07/17 10:20:45;;;;;;;0.45;0.45;;;23.70;76.70;;;;;;4208014;28;20051;-48
2021/07/17 10:23:07;;;;;;;0.00;0.00;;;23.70;76.80;;;;;;4208224;28;20059;-46
2021/07/17 10:25:29;;;;;;;0.00;0.00;;;23.70;76.70;;;;;;4196224;28;20040;-46
2021/07/17 10:27:52;;;;;;;0.10;0.10;;;23.70;76.70;;;;;;4191372;28;20562;-47
2021/07/17 10:30:16;;;;;;;0.00;0.00;;;23.70;76.70;;;;;;4191350;28;20060;-47
2021/07/17 10:32:47;;;;;;;0.00;0.00;;;23.80;76.60;;;;;;4191163;28;20133;-46
2021/07/17 10:35:10;;;;;;;0.00;0.00;;;23.80;76.60;;;;;;4191238;28;20406;-46
2021/07/17 10:37:36;;;;;;;0.00;0.00;;;23.80;76.50;;;;;;4191338;28;20044;-51
2021/07/17 10:40:03;;;;;;;0.10;0.10;;;23.80;76.40;;;;;;4205293;28;20139;-47
2021/07/17 10:42:27;;;;;;;0.05;0.05;;;23.80;76.50;;;;;;4207425;28;20044;-48
2021/07/17 10:44:51;;;;;;;0.30;0.30;;;23.80;76.50;;;;;;4191156;28;20513;-48
2021/07/17 10:47:13;;;;;;;0.20;0.20;;;23.80;76.10;;;;;;4191052;28;20097;-45
2021/07/17 10:49:39;;;;;;;0.47;0.47;;;23.90;75.90;;;;;;4202070;28;20480;-47
2021/07/17 10:52:01;;;;;;;0.00;0.00;;;23.80;75.90;;;;;;4206769;28;20058;-46
2021/07/17 10:54:30;;;;;;;0.10;0.10;;;23.80;75.60;;;;;;4199072;28;20097;-46
2021/07/17 10:56:54;;;;;;;0.00;0.00;;;23.90;75.50;;;;;;4191156;28;20386;-48
2021/07/17 10:59:47;;;;;;;0.10;0.10;;;23.90;75.20;;;;;;4191085;28;20686;-46
2021/07/17 11:02:10;;;;;;;0.65;0.65;;;23.90;75.20;;;;;;4171346;28;20053;-52
2021/07/17 11:04:38;;;;;;;0.43;0.43;;;23.90;75.20;;;;;;4191118;28;20486;-47
2021/07/17 11:07:34;;;;;;;0.13;0.13;;;23.90;75.90;;;;;;4190961;28;20048;-50
2021/07/17 11:09:58;;;;;;;0.20;0.20;;;23.90;75.00;;;;;;4205672;28;20051;-48
2021/07/17 11:12:21;;;;;;;0.73;0.73;;;23.90;75.00;;;;;;4206913;28;20060;-46
2021/07/17 11:14:44;;;;;;;0.63;0.63;;;23.90;74.90;;;;;;4207959;28;20044;-47
2021/07/17 11:17:06;;;;;;;0.40;0.40;;;23.90;74.90;;;;;;4207712;28;20044;-47
2021/07/17 11:19:29;;;;;;;0.00;0.00;;;23.90;74.80;;;;;;4203963;28;20056;-48
2021/07/17 11:21:53;;;;;;;1.08;1.08;;;23.90;74.70;;;;;;4191050;27;20620;-49
2021/07/17 11:24:16;;;;;;;0.22;0.22;;;23.90;74.60;;;;;;4210376;28;20052;-46
2021/07/17 11:26:40;;;;;;;1.50;1.50;;;23.90;74.30;;;;;;4209161;27;20391;-51
2021/07/17 11:29:04;;;;;;;0.10;0.10;;;24.00;74.20;;;;;;4210237;28;20048;-48
2021/07/17 11:31:52;;;;;;;0.10;0.10;;;24.00;74.00;;;;;;4210834;28;20719;-49
2021/07/17 11:34:36;;;;;;;0.13;0.13;;;23.90;73.80;;;;;;4193452;28;20129;-48
2021/07/17 11:37:02;;;;;;;1.17;1.13;;;24.00;74.00;;;;;;4193430;28;20455;-48
2021/07/17 11:39:28;;;;;;;0.35;0.35;;;24.00;74.00;;;;;;4193220;28;20056;-49
2021/07/17 11:41:50;;;;;;;0.40;0.40;;;24.00;73.90;;;;;;4193964;28;20561;-48
2021/07/17 11:44:13;;;;;;;0.20;0.20;;;24.00;74.00;;;;;;4193575;28;20135;-52
2021/07/17 11:46:35;;;;;;;0.10;0.10;;;24.00;74.00;;;;;;4193658;28;20076;-48
2021/07/17 11:49:02;;;;;;;0.30;0.30;;;24.00;74.00;;;;;;4193955;28;20045;-47
2021/07/17 11:51:24;;;;;;;0.32;0.32;;;24.10;74.00;;;;;;4193934;28;20140;-46
2021/07/17 11:53:48;;;;;;;0.00;0.00;;;24.10;73.80;;;;;;4192702;28;20052;-49
2021/07/17 11:56:10;;;;;;;0.00;0.00;;;24.10;73.80;;;;;;4210238;28;20068;-48
2021/07/17 11:58:32;;;;;;;3.10;1.98;;;24.10;73.80;;;;;;4210721;28;20048;-49
2021/07/17 12:01:01;;;;;;;0.57;0.57;;;24.10;73.90;;;;;;4210169;28;20048;-49
2021/07/17 12:03:23;;;;;;;0.38;0.38;;;24.10;73.80;;;;;;4210247;28;20097;-46
2021/07/17 12:05:49;;;;;;;0.00;0.00;;;24.10;73.70;;;;;;4209723;28;20059;-46
2021/07/17 12:08:11;;;;;;;0.22;0.22;;;24.10;73.80;;;;;;4209942;28;20086;-49
2021/07/17 12:10:34;;;;;;;0.00;0.00;;;24.10;73.70;;;;;;4210045;28;20508;-49
2021/07/17 12:12:59;;;;;;;0.00;0.00;;;24.10;73.70;;;;;;4209766;28;20066;-51
2021/07/17 12:15:23;;;;;;;0.10;0.10;;;24.10;73.70;;;;;;4201864;28;20056;-46
2021/07/17 12:17:53;;;;;;;0.00;0.00;;;24.10;73.60;;;;;;4207148;28;20071;-48
2021/07/17 12:20:18;;;;;;;1.05;0.80;;;24.10;73.80;;;;;;4209208;28;20075;-48
2021/07/17 12:22:57;;;;;;;0.13;0.13;;;24.10;74.00;;;;;;4196110;28;20052;-47
2021/07/17 12:25:22;;;;;;;0.13;0.13;;;24.20;74.50;;;;;;4200437;28;20512;-46
2021/07/17 12:28:09;;;;;;;0.00;0.00;;;24.20;75.00;;;;;;4176729;28;20071;-50